sensor_id;sensor_type;location;lat;lon;timestamp;pressure;altitude;pressure_sealevel;temperature;humidity
50444;BME280;36370;52.216;21.142;2022-11-04T00:01:47;100457.38;;;4.94;100.00
50444;BME280;36370;52.216;21.142;2022-11-04T00:05:49;100450.38;;;4.96;100.00
50444;BME280;36370;52.216;21.142;2022-11-04T00:09:51;100453.47;;;5.06;100.00
50444;BME280;36370;52.216;21.142;2022-11-04T00:13:53;100445.81;;;5.01;100.00
50444;BME280;36370;52.216;21.142;2022-11-04T00:17:55;100441.47;;;5.01;100.00
50444;BME280;36370;52.216;21.142;2022-11-04T00:21:57;100438.03;;;5.01;100.00
50444;BME280;36370;52.216;21.142;2022-11-04T00:26:17;100437.78;;;5.07;100.00
50444;BME280;36370;52.216;21.142;2022-11-04T00:30:38;100431.22;;;4.97;100.00
50444;BME280;36370;52.216;21.142;2022-11-04T00:34:39;100425.94;;;4.98;100.00
50444;BME280;36370;52.216;21.142;2022-11-04T00:38:42;100413.84;;;4.97;100.00
50444;BME280;36370;52.216;21.142;2022-11-04T00:42:44;100407.16;;;4.90;100.00
50444;BME280;36370;52.216;21.142;2022-11-04T00:46:48;100404.41;;;4.95;100.00
50444;BME280;36370;52.216;21.142;2022-11-04T00:50:50;100406.00;;;4.99;100.00
50444;BME280;36370;52.216;21.142;2022-11-04T00:54:52;100400.66;;;5.02;100.00
50444;BME280;36370;52.216;21.142;2022-11-04T00:58:54;100392.72;;;5.05;100.00
50444;BME280;36370;52.216;21.142;2022-11-04T01:02:56;100382.97;;;5.10;100.00
50444;BME280;36370;52.216;21.142;2022-11-04T01:07:01;100378.59;;;5.11;100.00
50444;BME280;36370;52.216;21.142;2022-11-04T01:11:04;100367.06;;;5.18;100.00
50444;BME280;36370;52.216;21.142;2022-11-04T01:15:06;100354.56;;;5.26;100.00
50444;BME280;36370;52.216;21.142;2022-11-04T01:19:09;100342.41;;;5.27;100.00
50444;BME280;36370;52.216;21.142;2022-11-04T01:23:11;100341.66;;;5.23;100.00
50444;BME280;36370;52.216;21.142;2022-11-04T01:27:14;100325.66;;;5.32;100.00
50444;BME280;36370;52.216;21.142;2022-11-04T01:31:21;100329.53;;;5.44;100.00
50444;BME280;36370;52.216;21.142;2022-11-04T01:35:24;100324.78;;;5.54;100.00
50444;BME280;36370;52.216;21.142;2022-11-04T01:39:25;100312.66;;;5.53;100.00
50444;BME280;36370;52.216;21.142;2022-11-04T01:48:02;100285.38;;;5.62;100.00
50444;BME280;36370;52.216;21.142;2022-11-04T01:52:13;100280.16;;;5.62;100.00
50444;BME280;36370;52.216;21.142;2022-11-04T01:56:16;100275.66;;;5.65;100.00
50444;BME280;36370;52.216;21.142;2022-11-04T02:00:19;100276.25;;;5.72;100.00
50444;BME280;36370;52.216;21.142;2022-11-04T02:04:20;100264.34;;;5.85;100.00
50444;BME280;36370;52.216;21.142;2022-11-04T02:08:29;100252.53;;;5.99;100.00
50444;BME280;36370;52.216;21.142;2022-11-04T02:12:30;100245.25;;;6.05;100.00
50444;BME280;36370;52.216;21.142;2022-11-04T02:16:54;100235.31;;;6.14;100.00
50444;BME280;36370;52.216;21.142;2022-11-04T02:25:30;100209.56;;;6.06;100.00
50444;BME280;36370;52.216;21.142;2022-11-04T02:30:15;100205.56;;;6.18;100.00
50444;BME280;36370;52.216;21.142;2022-11-04T02:44:15;100196.34;;;6.29;100.00
50444;BME280;36370;52.216;21.142;2022-11-04T02:53:00;100170.41;;;6.26;100.00
50444;BME280;36370;52.216;21.142;2022-11-04T02:57:06;100171.00;;;6.32;100.00
50444;BME280;36370;52.216;21.142;2022-11-04T03:01:12;100171.00;;;6.32;100.00
50444;BME280;36370;52.216;21.142;2022-11-04T03:05:19;100164.38;;;6.24;100.00
50444;BME280;36370;52.216;21.142;2022-11-04T03:09:24;100165.94;;;6.28;100.00
50444;BME280;36370;52.216;21.142;2022-11-04T03:13:33;100166.84;;;6.27;100.00
50444;BME280;36370;52.216;21.142;2022-11-04T03:18:06;100170.88;;;6.35;100.00
50444;BME280;36370;52.216;21.142;2022-11-04T03:22:16;100162.69;;;6.42;100.00
50444;BME280;36370;52.216;21.142;2022-11-04T03:26:28;100161.13;;;6.38;100.00
50444;BME280;36370;52.216;21.142;2022-11-04T03:30:37;100168.66;;;6.44;100.00
50444;BME280;36370;52.216;21.142;2022-11-04T03:34:40;100160.69;;;6.47;100.00
50444;BME280;36370;52.216;21.142;2022-11-04T03:38:42;100154.63;;;6.47;100.00
50444;BME280;36370;52.216;21.142;2022-11-04T03:42:53;100153.94;;;6.43;100.00
50444;BME280;36370;52.216;21.142;2022-11-04T03:46:57;100139.41;;;6.38;100.00
50444;BME280;36370;52.216;21.142;2022-11-04T03:50:59;100146.03;;;6.45;100.00
50444;BME280;36370;52.216;21.142;2022-11-04T03:55:02;100144.34;;;6.44;100.00
50444;BME280;36370;52.216;21.142;2022-11-04T03:59:47;100135.44;;;6.48;100.00
50444;BME280;36370;52.216;21.142;2022-11-04T04:04:16;100139.72;;;6.49;100.00
50444;BME280;36370;52.216;21.142;2022-11-04T04:08:38;100130.91;;;6.52;100.00
50444;BME280;36370;52.216;21.142;2022-11-04T04:12:41;100122.03;;;6.56;100.00
50444;BME280;36370;52.216;21.142;2022-11-04T04:16:46;100117.34;;;6.62;100.00
50444;BME280;36370;52.216;21.142;2022-11-04T04:20:52;100103.53;;;6.60;100.00
50444;BME280;36370;52.216;21.142;2022-11-04T04:24:58;100098.31;;;6.60;100.00
50444;BME280;36370;52.216;21.142;2022-11-04T04:29:21;100103.44;;;6.62;100.00
50444;BME280;36370;52.216;21.142;2022-11-04T04:33:24;100102.66;;;6.60;100.00
50444;BME280;36370;52.216;21.142;2022-11-04T04:37:26;100110.03;;;6.69;100.00
50444;BME280;36370;52.216;21.142;2022-11-04T04:41:29;100116.19;;;6.68;100.00
50444;BME280;36370;52.216;21.142;2022-11-04T04:45:52;100114.59;;;6.65;100.00
50444;BME280;36370;52.216;21.142;2022-11-04T04:49:56;100119.56;;;6.70;100.00
50444;BME280;36370;52.216;21.142;2022-11-04T04:53:58;100121.56;;;6.65;100.00
50444;BME280;36370;52.216;21.142;2022-11-04T04:58:00;100113.22;;;6.76;100.00
50444;BME280;36370;52.216;21.142;2022-11-04T05:02:02;100117.41;;;6.78;100.00
50444;BME280;36370;52.216;21.142;2022-11-04T05:06:04;100108.59;;;6.81;100.00
50444;BME280;36370;52.216;21.142;2022-11-04T05:10:08;100102.50;;;6.80;100.00
50444;BME280;36370;52.216;21.142;2022-11-04T05:14:11;100106.19;;;6.94;100.00
50444;BME280;36370;52.216;21.142;2022-11-04T05:18:13;100104.66;;;6.90;100.00
50444;BME280;36370;52.216;21.142;2022-11-04T05:22:15;100092.91;;;6.98;100.00
50444;BME280;36370;52.216;21.142;2022-11-04T05:26:16;100089.63;;;6.95;100.00
50444;BME280;36370;52.216;21.142;2022-11-04T05:30:19;100096.59;;;6.94;100.00
50444;BME280;36370;52.216;21.142;2022-11-04T05:34:20;100102.44;;;6.99;100.00
50444;BME280;36370;52.216;21.142;2022-11-04T05:38:22;100103.00;;;6.89;100.00
50444;BME280;36370;52.216;21.142;2022-11-04T05:42:24;100095.75;;;6.94;100.00
50444;BME280;36370;52.216;21.142;2022-11-04T05:46:27;100093.28;;;6.91;100.00
50444;BME280;36370;52.216;21.142;2022-11-04T05:50:30;100100.31;;;6.90;100.00
50444;BME280;36370;52.216;21.142;2022-11-04T05:54:32;100085.38;;;6.92;100.00
50444;BME280;36370;52.216;21.142;2022-11-04T05:58:34;100087.28;;;7.06;100.00
50444;BME280;36370;52.216;21.142;2022-11-04T06:02:36;100074.00;;;7.11;100.00
50444;BME280;36370;52.216;21.142;2022-11-04T06:06:38;100071.38;;;7.11;100.00
50444;BME280;36370;52.216;21.142;2022-11-04T06:10:42;100066.91;;;7.13;100.00
50444;BME280;36370;52.216;21.142;2022-11-04T06:14:44;100056.53;;;7.11;100.00
50444;BME280;36370;52.216;21.142;2022-11-04T06:18:46;100047.38;;;7.20;100.00
50444;BME280;36370;52.216;21.142;2022-11-04T06:22:47;100047.91;;;7.27;100.00
50444;BME280;36370;52.216;21.142;2022-11-04T06:26:49;100038.56;;;7.39;100.00
50444;BME280;36370;52.216;21.142;2022-11-04T06:30:51;100043.13;;;7.35;100.00
50444;BME280;36370;52.216;21.142;2022-11-04T06:34:53;100044.22;;;7.47;100.00
50444;BME280;36370;52.216;21.142;2022-11-04T06:38:55;100043.63;;;7.42;100.00
50444;BME280;36370;52.216;21.142;2022-11-04T06:43:05;100038.25;;;7.45;100.00
50444;BME280;36370;52.216;21.142;2022-11-04T06:47:08;100034.25;;;7.53;100.00
50444;BME280;36370;52.216;21.142;2022-11-04T06:51:10;100036.88;;;7.53;100.00
50444;BME280;36370;52.216;21.142;2022-11-04T06:55:12;100032.84;;;7.64;100.00
50444;BME280;36370;52.216;21.142;2022-11-04T06:59:16;100035.72;;;7.59;100.00
50444;BME280;36370;52.216;21.142;2022-11-04T07:03:18;100039.84;;;7.63;100.00
50444;BME280;36370;52.216;21.142;2022-11-04T07:07:20;100045.34;;;7.75;100.00
50444;BME280;36370;52.216;21.142;2022-11-04T07:11:22;100044.34;;;7.77;100.00
50444;BME280;36370;52.216;21.142;2022-11-04T07:15:25;100044.41;;;7.91;100.00
50444;BME280;36370;52.216;21.142;2022-11-04T07:19:28;100056.97;;;8.01;100.00
50444;BME280;36370;52.216;21.142;2022-11-04T07:23:30;100059.19;;;7.93;100.00
50444;BME280;36370;52.216;21.142;2022-11-04T07:27:32;100072.81;;;8.14;100.00
50444;BME280;36370;52.216;21.142;2022-11-04T07:31:34;100068.53;;;8.13;100.00
50444;BME280;36370;52.216;21.142;2022-11-04T07:35:35;100063.53;;;8.24;100.00
50444;BME280;36370;52.216;21.142;2022-11-04T07:39:37;100066.53;;;8.32;100.00
50444;BME280;36370;52.216;21.142;2022-11-04T07:43:39;100070.00;;;8.49;100.00
50444;BME280;36370;52.216;21.142;2022-11-04T07:47:41;100063.47;;;8.56;100.00
50444;BME280;36370;52.216;21.142;2022-11-04T07:51:43;100066.50;;;8.64;100.00
50444;BME280;36370;52.216;21.142;2022-11-04T07:55:45;100066.94;;;8.56;100.00
50444;BME280;36370;52.216;21.142;2022-11-04T07:59:49;100071.84;;;8.62;100.00
50444;BME280;36370;52.216;21.142;2022-11-04T08:03:52;100063.47;;;8.86;100.00
50444;BME280;36370;52.216;21.142;2022-11-04T08:07:53;100068.25;;;8.94;100.00
50444;BME280;36370;52.216;21.142;2022-11-04T08:11:56;100073.31;;;8.97;100.00
50444;BME280;36370;52.216;21.142;2022-11-04T08:16:02;100069.00;;;9.10;100.00
50444;BME280;36370;52.216;21.142;2022-11-04T08:20:04;100072.28;;;9.14;100.00
50444;BME280;36370;52.216;21.142;2022-11-04T08:24:06;100078.66;;;9.10;100.00
50444;BME280;36370;52.216;21.142;2022-11-04T08:28:08;100070.50;;;9.29;100.00
50444;BME280;36370;52.216;21.142;2022-11-04T08:32:19;100073.69;;;9.34;100.00
50444;BME280;36370;52.216;21.142;2022-11-04T08:36:30;100063.59;;;9.28;100.00
50444;BME280;36370;52.216;21.142;2022-11-04T08:40:32;100069.94;;;9.38;100.00
50444;BME280;36370;52.216;21.142;2022-11-04T08:44:34;100059.25;;;9.41;100.00
50444;BME280;36370;52.216;21.142;2022-11-04T08:48:37;100069.09;;;9.38;100.00
50444;BME280;36370;52.216;21.142;2022-11-04T08:52:41;100057.78;;;9.37;100.00
50444;BME280;36370;52.216;21.142;2022-11-04T08:56:42;100053.91;;;9.43;100.00
50444;BME280;36370;52.216;21.142;2022-11-04T09:00:44;100060.22;;;9.40;100.00
50444;BME280;36370;52.216;21.142;2022-11-04T09:04:46;100047.72;;;9.58;100.00
50444;BME280;36370;52.216;21.142;2022-11-04T09:08:49;100047.91;;;9.55;100.00
50444;BME280;36370;52.216;21.142;2022-11-04T09:12:51;100042.19;;;9.63;100.00
50444;BME280;36370;52.216;21.142;2022-11-04T09:16:54;100056.47;;;9.59;100.00
50444;BME280;36370;52.216;21.142;2022-11-04T09:21:03;100060.09;;;9.56;100.00
50444;BME280;36370;52.216;21.142;2022-11-04T09:25:06;100058.34;;;9.42;100.00
50444;BME280;36370;52.216;21.142;2022-11-04T09:29:08;100044.09;;;9.46;100.00
50444;BME280;36370;52.216;21.142;2022-11-04T09:33:10;100051.03;;;9.62;100.00
50444;BME280;36370;52.216;21.142;2022-11-04T09:37:12;100052.78;;;9.61;100.00
50444;BME280;36370;52.216;21.142;2022-11-04T09:45:44;100037.44;;;9.55;100.00
50444;BME280;36370;52.216;21.142;2022-11-04T09:49:48;100030.41;;;9.41;100.00
50444;BME280;36370;52.216;21.142;2022-11-04T09:53:56;100017.22;;;9.43;100.00
50444;BME280;36370;52.216;21.142;2022-11-04T09:57:59;100014.50;;;9.59;100.00
50444;BME280;36370;52.216;21.142;2022-11-04T10:28:25;100002.22;;;10.80;100.00
50444;BME280;36370;52.216;21.142;2022-11-04T10:32:35;100010.84;;;10.94;100.00
50444;BME280;36370;52.216;21.142;2022-11-04T10:36:41;100013.69;;;10.91;100.00
50444;BME280;36370;52.216;21.142;2022-11-04T10:40:47;100002.75;;;10.98;100.00
50444;BME280;36370;52.216;21.142;2022-11-04T10:44:51;100006.72;;;11.16;100.00
50444;BME280;36370;52.216;21.142;2022-11-04T10:53:28;99987.56;;;11.88;100.00
50444;BME280;36370;52.216;21.142;2022-11-04T10:57:31;99986.81;;;11.99;100.00
50444;BME280;36370;52.216;21.142;2022-11-04T11:01:34;99991.59;;;11.94;100.00
50444;BME280;36370;52.216;21.142;2022-11-04T11:05:36;99981.44;;;11.76;100.00
50444;BME280;36370;52.216;21.142;2022-11-04T11:09:50;99988.56;;;11.74;100.00
50444;BME280;36370;52.216;21.142;2022-11-04T11:13:55;99976.56;;;11.83;100.00
50444;BME280;36370;52.216;21.142;2022-11-04T11:22:01;99979.28;;;12.06;100.00
50444;BME280;36370;52.216;21.142;2022-11-04T11:26:06;99973.69;;;12.10;100.00
50444;BME280;36370;52.216;21.142;2022-11-04T11:30:21;99963.66;;;12.51;100.00
50444;BME280;36370;52.216;21.142;2022-11-04T11:34:27;99961.16;;;12.83;100.00
50444;BME280;36370;52.216;21.142;2022-11-04T11:38:33;99956.25;;;12.79;100.00
50444;BME280;36370;52.216;21.142;2022-11-04T11:42:40;99966.19;;;13.09;100.00
50444;BME280;36370;52.216;21.142;2022-11-04T11:46:49;99963.31;;;13.23;100.00
50444;BME280;36370;52.216;21.142;2022-11-04T11:50:56;99964.28;;;13.00;100.00
50444;BME280;36370;52.216;21.142;2022-11-04T11:55:11;99965.97;;;13.35;100.00
50444;BME280;36370;52.216;21.142;2022-11-04T12:04:13;99965.59;;;13.05;100.00
50444;BME280;36370;52.216;21.142;2022-11-04T12:08:53;99959.13;;;13.21;100.00
50444;BME280;36370;52.216;21.142;2022-11-04T12:13:26;99957.44;;;13.42;100.00
50444;BME280;36370;52.216;21.142;2022-11-04T12:22:21;99955.16;;;13.15;100.00
50444;BME280;36370;52.216;21.142;2022-11-04T12:26:52;99941.38;;;12.89;100.00
50444;BME280;36370;52.216;21.142;2022-11-04T12:31:23;99936.72;;;12.70;100.00
50444;BME280;36370;52.216;21.142;2022-11-04T12:39:47;99936.72;;;12.70;100.00
50444;BME280;36370;52.216;21.142;2022-11-04T12:44:07;99933.50;;;12.66;100.00
50444;BME280;36370;52.216;21.142;2022-11-04T12:48:30;99932.50;;;12.67;100.00
50444;BME280;36370;52.216;21.142;2022-11-04T12:53:01;99921.22;;;12.43;100.00
50444;BME280;36370;52.216;21.142;2022-11-04T12:57:30;99922.19;;;12.53;100.00
50444;BME280;36370;52.216;21.142;2022-11-04T13:01:47;99925.47;;;12.21;100.00
50444;BME280;36370;52.216;21.142;2022-11-04T13:06:08;99938.41;;;12.13;100.00
50444;BME280;36370;52.216;21.142;2022-11-04T13:10:18;99927.34;;;11.96;100.00
50444;BME280;36370;52.216;21.142;2022-11-04T13:14:29;99928.72;;;11.89;100.00
50444;BME280;36370;52.216;21.142;2022-11-04T13:18:35;99928.94;;;11.86;100.00
50444;BME280;36370;52.216;21.142;2022-11-04T13:22:44;99915.19;;;11.82;100.00
50444;BME280;36370;52.216;21.142;2022-11-04T13:26:46;99918.03;;;11.79;100.00
50444;BME280;36370;52.216;21.142;2022-11-04T13:30:54;99923.41;;;11.78;100.00
50444;BME280;36370;52.216;21.142;2022-11-04T13:35:13;99928.34;;;11.82;100.00
50444;BME280;36370;52.216;21.142;2022-11-04T13:39:22;99938.47;;;11.76;100.00
50444;BME280;36370;52.216;21.142;2022-11-04T13:43:30;99930.69;;;11.74;100.00
50444;BME280;36370;52.216;21.142;2022-11-04T13:47:49;99933.59;;;11.58;100.00
50444;BME280;36370;52.216;21.142;2022-11-04T13:52:13;99937.16;;;11.57;100.00
50444;BME280;36370;52.216;21.142;2022-11-04T14:00:35;99939.47;;;11.38;100.00
50444;BME280;36370;52.216;21.142;2022-11-04T14:04:42;99935.19;;;11.24;100.00
50444;BME280;36370;52.216;21.142;2022-11-04T14:13:43;99948.50;;;11.09;100.00
50444;BME280;36370;52.216;21.142;2022-11-04T14:22:05;99937.28;;;10.82;100.00
50444;BME280;36370;52.216;21.142;2022-11-04T14:26:15;99939.03;;;10.81;100.00
50444;BME280;36370;52.216;21.142;2022-11-04T14:30:33;99931.91;;;10.70;100.00
50444;BME280;36370;52.216;21.142;2022-11-04T14:34:36;99931.41;;;10.52;100.00
50444;BME280;36370;52.216;21.142;2022-11-04T14:38:41;99929.91;;;10.48;100.00
50444;BME280;36370;52.216;21.142;2022-11-04T14:42:48;99925.50;;;10.36;100.00
50444;BME280;36370;52.216;21.142;2022-11-04T14:46:55;99918.88;;;10.30;100.00
50444;BME280;36370;52.216;21.142;2022-11-04T14:50:57;99910.84;;;10.19;100.00
50444;BME280;36370;52.216;21.142;2022-11-04T14:55:21;99904.09;;;10.02;100.00
50444;BME280;36370;52.216;21.142;2022-11-04T14:59:26;99901.69;;;9.99;100.00
50444;BME280;36370;52.216;21.142;2022-11-04T15:03:34;99902.19;;;9.91;100.00
50444;BME280;36370;52.216;21.142;2022-11-04T15:07:56;99906.72;;;9.89;100.00
50444;BME280;36370;52.216;21.142;2022-11-04T15:12:09;99900.63;;;9.88;100.00
50444;BME280;36370;52.216;21.142;2022-11-04T15:16:30;99891.91;;;9.88;100.00
50444;BME280;36370;52.216;21.142;2022-11-04T15:20:37;99888.53;;;9.86;100.00
50444;BME280;36370;52.216;21.142;2022-11-04T15:24:41;99881.84;;;9.95;100.00
50444;BME280;36370;52.216;21.142;2022-11-04T15:28:46;99881.19;;;9.91;100.00
50444;BME280;36370;52.216;21.142;2022-11-04T15:33:00;99894.25;;;10.05;100.00
50444;BME280;36370;52.216;21.142;2022-11-04T15:37:03;99885.41;;;10.06;100.00
50444;BME280;36370;52.216;21.142;2022-11-04T15:41:06;99886.06;;;10.10;100.00
50444;BME280;36370;52.216;21.142;2022-11-04T15:45:32;99903.84;;;10.19;100.00
50444;BME280;36370;52.216;21.142;2022-11-04T15:49:35;99900.56;;;10.16;100.00
50444;BME280;36370;52.216;21.142;2022-11-04T15:57:54;99907.59;;;10.15;100.00
50444;BME280;36370;52.216;21.142;2022-11-04T16:01:56;99907.19;;;10.09;100.00
50444;BME280;36370;52.216;21.142;2022-11-04T16:06:06;99915.38;;;10.17;100.00
50444;BME280;36370;52.216;21.142;2022-11-04T16:10:24;99901.63;;;10.26;100.00
50444;BME280;36370;52.216;21.142;2022-11-04T16:14:28;99894.56;;;10.14;100.00
50444;BME280;36370;52.216;21.142;2022-11-04T16:18:40;99903.19;;;10.16;100.00
50444;BME280;36370;52.216;21.142;2022-11-04T16:22:43;99902.25;;;10.17;100.00
50444;BME280;36370;52.216;21.142;2022-11-04T16:26:46;99897.09;;;10.15;100.00
50444;BME280;36370;52.216;21.142;2022-11-04T16:30:59;99888.69;;;10.10;100.00
50444;BME280;36370;52.216;21.142;2022-11-04T16:35:10;99891.22;;;10.12;100.00
50444;BME280;36370;52.216;21.142;2022-11-04T16:39:13;99891.53;;;10.07;100.00
50444;BME280;36370;52.216;21.142;2022-11-04T16:43:20;99898.88;;;10.15;100.00
50444;BME280;36370;52.216;21.142;2022-11-04T16:47:22;99895.81;;;10.08;100.00
50444;BME280;36370;52.216;21.142;2022-11-04T16:51:26;99903.06;;;10.04;100.00
50444;BME280;36370;52.216;21.142;2022-11-04T16:55:28;99900.84;;;10.11;100.00
50444;BME280;36370;52.216;21.142;2022-11-04T16:59:30;99906.13;;;10.11;100.00
50444;BME280;36370;52.216;21.142;2022-11-04T17:03:32;99913.69;;;10.16;100.00
50444;BME280;36370;52.216;21.142;2022-11-04T17:07:37;99904.44;;;10.10;100.00
50444;BME280;36370;52.216;21.142;2022-11-04T17:11:53;99900.66;;;10.14;100.00
50444;BME280;36370;52.216;21.142;2022-11-04T17:15:55;99897.09;;;10.15;100.00
50444;BME280;36370;52.216;21.142;2022-11-04T17:19:57;99888.06;;;10.19;100.00
50444;BME280;36370;52.216;21.142;2022-11-04T17:23:59;99881.03;;;10.07;100.00
50444;BME280;36370;52.216;21.142;2022-11-04T17:28:01;99875.88;;;10.05;100.00
50444;BME280;36370;52.216;21.142;2022-11-04T17:32:03;99865.38;;;10.05;100.00
50444;BME280;36370;52.216;21.142;2022-11-04T17:36:05;99855.72;;;10.06;100.00
50444;BME280;36370;52.216;21.142;2022-11-04T17:40:16;99852.78;;;9.98;100.00
50444;BME280;36370;52.216;21.142;2022-11-04T17:44:18;99860.75;;;10.09;100.00
50444;BME280;36370;52.216;21.142;2022-11-04T17:48:20;99856.13;;;10.00;100.00
50444;BME280;36370;52.216;21.142;2022-11-04T17:52:22;99850.06;;;9.99;100.00
50444;BME280;36370;52.216;21.142;2022-11-04T17:56:24;99863.91;;;9.88;100.00
50444;BME280;36370;52.216;21.142;2022-11-04T18:00:26;99848.56;;;9.82;100.00
50444;BME280;36370;52.216;21.142;2022-11-04T18:04:30;99842.25;;;9.85;100.00
50444;BME280;36370;52.216;21.142;2022-11-04T18:08:32;99846.75;;;9.83;100.00
50444;BME280;36370;52.216;21.142;2022-11-04T18:12:35;99840.03;;;9.79;100.00
50444;BME280;36370;52.216;21.142;2022-11-04T18:16:44;99831.22;;;9.80;100.00
50444;BME280;36370;52.216;21.142;2022-11-04T18:20:47;99822.53;;;9.79;100.00
50444;BME280;36370;52.216;21.142;2022-11-04T18:24:49;99820.94;;;9.77;100.00
50444;BME280;36370;52.216;21.142;2022-11-04T18:28:51;99828.72;;;9.78;100.00
50444;BME280;36370;52.216;21.142;2022-11-04T18:32:53;99834.06;;;9.77;100.00
50444;BME280;36370;52.216;21.142;2022-11-04T18:36:54;99837.63;;;9.76;100.00
50444;BME280;36370;52.216;21.142;2022-11-04T18:40:58;99836.38;;;9.81;100.00
50444;BME280;36370;52.216;21.142;2022-11-04T18:45:00;99835.53;;;9.81;100.00
50444;BME280;36370;52.216;21.142;2022-11-04T18:49:02;99834.38;;;9.85;100.00
50444;BME280;36370;52.216;21.142;2022-11-04T18:53:04;99828.59;;;9.80;100.00
50444;BME280;36370;52.216;21.142;2022-11-04T18:57:06;99831.03;;;9.83;100.00
50444;BME280;36370;52.216;21.142;2022-11-04T19:01:11;99842.03;;;9.88;100.00
50444;BME280;36370;52.216;21.142;2022-11-04T19:05:13;99851.28;;;9.94;100.00
50444;BME280;36370;52.216;21.142;2022-11-04T19:09:16;99851.06;;;9.84;100.00
50444;BME280;36370;52.216;21.142;2022-11-04T19:13:37;99845.41;;;9.90;100.00
50444;BME280;36370;52.216;21.142;2022-11-04T19:17:39;99850.22;;;9.83;100.00
50444;BME280;36370;52.216;21.142;2022-11-04T19:21:41;99839.94;;;9.80;100.00
50444;BME280;36370;52.216;21.142;2022-11-04T19:25:43;99822.31;;;9.82;100.00
50444;BME280;36370;52.216;21.142;2022-11-04T19:29:45;99832.28;;;9.77;100.00
50444;BME280;36370;52.216;21.142;2022-11-04T19:33:47;99844.44;;;9.78;100.00
50444;BME280;36370;52.216;21.142;2022-11-04T19:37:49;99835.44;;;9.82;100.00
50444;BME280;36370;52.216;21.142;2022-11-04T19:41:51;99846.13;;;9.79;100.00
50444;BME280;36370;52.216;21.142;2022-11-04T19:46:12;99846.44;;;9.75;100.00
50444;BME280;36370;52.216;21.142;2022-11-04T19:50:13;99835.22;;;9.73;100.00
50444;BME280;36370;52.216;21.142;2022-11-04T19:54:15;99834.56;;;9.69;100.00
50444;BME280;36370;52.216;21.142;2022-11-04T19:58:19;99827.19;;;9.61;100.00
50444;BME280;36370;52.216;21.142;2022-11-04T20:02:22;99818.31;;;9.64;100.00
50444;BME280;36370;52.216;21.142;2022-11-04T20:06:25;99817.69;;;9.60;100.00
50444;BME280;36370;52.216;21.142;2022-11-04T20:10:26;99823.94;;;9.58;100.00
50444;BME280;36370;52.216;21.142;2022-11-04T20:14:28;99806.31;;;9.47;100.00
50444;BME280;36370;52.216;21.142;2022-11-04T20:18:30;99816.78;;;9.47;100.00
50444;BME280;36370;52.216;21.142;2022-11-04T20:22:32;99829.19;;;9.45;100.00
50444;BME280;36370;52.216;21.142;2022-11-04T20:26:35;99816.47;;;9.39;100.00
50444;BME280;36370;52.216;21.142;2022-11-04T20:30:37;99815.38;;;9.28;100.00
50444;BME280;36370;52.216;21.142;2022-11-04T20:34:39;99797.72;;;9.18;100.00
50444;BME280;36370;52.216;21.142;2022-11-04T20:38:42;99785.84;;;9.12;100.00
50444;BME280;36370;52.216;21.142;2022-11-04T20:42:43;99796.31;;;9.12;100.00
50444;BME280;36370;52.216;21.142;2022-11-04T20:46:48;99792.44;;;9.05;100.00
50444;BME280;36370;52.216;21.142;2022-11-04T20:50:50;99801.44;;;9.01;100.00
50444;BME280;36370;52.216;21.142;2022-11-04T20:54:52;99793.22;;;8.92;100.00
50444;BME280;36370;52.216;21.142;2022-11-04T20:58:54;99792.00;;;8.98;100.00
50444;BME280;36370;52.216;21.142;2022-11-04T21:03:00;99799.59;;;8.88;100.00
50444;BME280;36370;52.216;21.142;2022-11-04T21:07:02;99806.91;;;8.83;100.00
50444;BME280;36370;52.216;21.142;2022-11-04T21:11:05;99793.28;;;8.78;100.00
50444;BME280;36370;52.216;21.142;2022-11-04T21:15:07;99802.97;;;8.90;100.00
50444;BME280;36370;52.216;21.142;2022-11-04T21:19:30;99791.09;;;8.85;100.00
50444;BME280;36370;52.216;21.142;2022-11-04T21:23:32;99800.34;;;8.90;100.00
50444;BME280;36370;52.216;21.142;2022-11-04T21:27:34;99784.44;;;8.93;100.00
50444;BME280;36370;52.216;21.142;2022-11-04T21:31:35;99770.88;;;8.87;100.00
50444;BME280;36370;52.216;21.142;2022-11-04T21:35:39;99770.78;;;8.88;100.00
50444;BME280;36370;52.216;21.142;2022-11-04T21:39:41;99771.34;;;8.93;100.00
50444;BME280;36370;52.216;21.142;2022-11-04T21:43:43;99768.41;;;8.98;100.00
50444;BME280;36370;52.216;21.142;2022-11-04T21:47:45;99776.28;;;8.98;100.00
50444;BME280;36370;52.216;21.142;2022-11-04T21:51:47;99768.31;;;9.00;100.00
50444;BME280;36370;52.216;21.142;2022-11-04T21:55:49;99792.63;;;9.02;100.00
50444;BME280;36370;52.216;21.142;2022-11-04T21:59:51;99790.34;;;9.10;100.00
50444;BME280;36370;52.216;21.142;2022-11-04T22:03:57;99781.66;;;9.09;100.00
50444;BME280;36370;52.216;21.142;2022-11-04T22:08:00;99785.41;;;9.05;100.00
50444;BME280;36370;52.216;21.142;2022-11-04T22:12:16;99783.50;;;9.07;100.00
50444;BME280;36370;52.216;21.142;2022-11-04T22:16:20;99796.00;;;9.04;100.00
50444;BME280;36370;52.216;21.142;2022-11-04T22:20:23;99780.81;;;9.09;100.00
50444;BME280;36370;52.216;21.142;2022-11-04T22:24:25;99789.91;;;9.03;100.00
50444;BME280;36370;52.216;21.142;2022-11-04T22:28:26;99791.28;;;9.09;100.00
50444;BME280;36370;52.216;21.142;2022-11-04T22:32:28;99797.59;;;9.06;100.00
50444;BME280;36370;52.216;21.142;2022-11-04T22:36:31;99791.81;;;9.01;100.00
50444;BME280;36370;52.216;21.142;2022-11-04T22:40:33;99788.31;;;9.01;100.00
50444;BME280;36370;52.216;21.142;2022-11-04T22:44:35;99784.97;;;8.98;100.00
50444;BME280;36370;52.216;21.142;2022-11-04T22:48:37;99774.16;;;8.90;100.00